Time;durP1;ratioP1;P1;durP2;ratioP2;P2;SDS_P1;SDS_P2;PMS_P1;PMS_P2;Temp;Humidity;BMP_temperature;BMP_pressure;BME280_temperature;BME280_humidity;BME280_pressure;Samples;Min_cycle;Max_cycle;Signal;HPM_P1;HPM_P2
2024/01/09 00:01:11;;;;;;;21.93;2.53;;;-6.60;99.90;;;;;;5011803;28;20198;-88
2024/01/09 00:03:36;;;;;;;3.83;2.87;;;-6.60;99.90;;;;;;5014390;28;20202;-87
2024/01/09 00:06:02;;;;;;;3.00;1.47;;;-6.60;99.90;;;;;;5024289;28;20633;-88
2024/01/09 00:08:27;;;;;;;4.50;0.90;;;-6.60;99.90;;;;;;5017592;28;20788;-84
2024/01/09 00:10:53;;;;;;;5.73;3.27;;;-6.60;99.90;;;;;;5019856;28;20221;-86
2024/01/09 00:13:18;;;;;;;6.33;2.10;;;-6.70;99.90;;;;;;5014518;28;20186;-83
2024/01/09 00:15:44;;;;;;;3.27;2.97;;;-6.70;99.90;;;;;;5012449;28;20785;-86
2024/01/09 00:18:10;;;;;;;4.77;3.00;;;-6.70;99.90;;;;;;5002225;28;20218;-82
2024/01/09 00:20:35;;;;;;;1.70;1.60;;;-6.70;99.90;;;;;;5001048;28;20664;-82
2024/01/09 00:23:01;;;;;;;1.80;1.63;;;-6.70;99.90;;;;;;5009795;28;20194;-84
2024/01/09 00:25:26;;;;;;;19.33;4.17;;;-6.80;99.90;;;;;;5013411;28;20193;-82
2024/01/09 00:27:52;;;;;;;2.50;2.30;;;-6.80;99.90;;;;;;5030504;28;20220;-82
2024/01/09 00:30:19;;;;;;;9.40;4.40;;;-6.80;99.90;;;;;;5015844;28;20190;-86
2024/01/09 00:32:47;;;;;;;4.95;3.55;;;-6.80;99.90;;;;;;5013613;28;20252;-84
2024/01/09 00:35:14;;;;;;;3.55;1.30;;;-6.80;99.90;;;;;;5013130;28;20248;-84
2024/01/09 00:37:40;;;;;;;6.20;4.43;;;-6.80;99.90;;;;;;5017408;28;20234;-83
2024/01/09 00:40:06;;;;;;;3.60;2.93;;;-6.80;99.90;;;;;;5011139;28;20943;-83
2024/01/09 00:42:32;;;;;;;3.70;2.83;;;-6.80;99.90;;;;;;5011342;28;20446;-83
2024/01/09 00:45:00;;;;;;;6.10;2.70;;;-6.80;99.90;;;;;;5018875;28;20185;-86
2024/01/09 00:47:26;;;;;;;3.47;2.40;;;-6.80;99.90;;;;;;5011675;28;21763;-84
2024/01/09 00:49:52;;;;;;;3.10;1.85;;;-6.80;99.90;;;;;;5020892;28;20932;-83
2024/01/09 00:52:17;;;;;;;2.53;1.43;;;-6.80;99.90;;;;;;5000259;28;20256;-82
2024/01/09 00:54:43;;;;;;;1.40;1.30;;;-6.80;99.90;;;;;;5000014;28;20177;-83
2024/01/09 00:57:09;;;;;;;5.60;3.43;;;-7.00;99.90;;;;;;5015326;28;20550;-83
2024/01/09 00:59:35;;;;;;;3.28;2.58;;;-6.80;99.90;;;;;;5010738;28;20190;-82
2024/01/09 01:02:00;;;;;;;4.03;3.53;;;-6.80;99.90;;;;;;5007482;28;20182;-85
2024/01/09 01:04:26;;;;;;;2.73;2.53;;;-6.80;99.90;;;;;;5007206;28;20189;-84
2024/01/09 01:06:51;;;;;;;7.23;5.37;;;-6.80;99.90;;;;;;5014337;28;20405;-81
2024/01/09 01:09:17;;;;;;;8.17;5.07;;;-6.80;99.90;;;;;;5014908;28;20191;-86
2024/01/09 01:11:42;;;;;;;2.53;1.70;;;-6.80;99.90;;;;;;5007951;28;20296;-82
2024/01/09 01:14:08;;;;;;;1.40;1.30;;;-6.80;99.90;;;;;;5025266;28;20284;-85
2024/01/09 01:16:33;;;;;;;4.43;4.07;;;-6.80;99.90;;;;;;5026153;28;20225;-87
2024/01/09 01:18:59;;;;;;;2.20;2.00;;;-6.90;99.90;;;;;;5012642;28;20194;-84
2024/01/09 01:21:24;;;;;;;4.20;3.73;;;-6.80;99.90;;;;;;5016169;28;20218;-83
2024/01/09 01:23:49;;;;;;;2.80;1.80;;;-6.80;99.90;;;;;;5008030;28;20193;-86
2024/01/09 01:26:15;;;;;;;1.90;1.60;;;-6.90;99.90;;;;;;5002774;28;20193;-84
2024/01/09 01:28:42;;;;;;;1.17;0.70;;;-6.90;99.90;;;;;;5013160;28;20251;-81
2024/01/09 01:31:07;;;;;;;1.70;1.15;;;-6.90;99.90;;;;;;5009725;28;20201;-84
2024/01/09 01:33:33;;;;;;;5.33;2.07;;;-6.90;99.90;;;;;;5006306;28;20190;-82
2024/01/09 01:35:58;;;;;;;11.20;4.27;;;-6.90;99.90;;;;;;5013658;28;20271;-86
2024/01/09 01:38:25;;;;;;;2.60;2.40;;;-6.90;99.90;;;;;;5013331;28;20213;-84
2024/01/09 01:40:50;;;;;;;2.92;2.50;;;-6.90;99.90;;;;;;5012343;28;21160;-83
2024/01/09 01:43:17;;;;;;;3.20;1.97;;;-6.90;99.90;;;;;;5014875;28;20200;-83
2024/01/09 01:45:43;;;;;;;1.77;1.67;;;-6.90;99.90;;;;;;5014334;28;20746;-82
2024/01/09 01:48:09;;;;;;;16.80;5.23;;;-6.90;99.90;;;;;;5012138;28;20220;-83
2024/01/09 01:50:35;;;;;;;1.10;1.10;;;-6.90;99.90;;;;;;5011210;28;20909;-85
2024/01/09 01:53:01;;;;;;;9.87;3.10;;;-6.90;99.90;;;;;;5011165;28;20228;-85
2024/01/09 01:55:28;;;;;;;2.30;2.20;;;-6.90;99.90;;;;;;5010412;28;20996;-83
2024/01/09 01:57:55;;;;;;;6.05;3.03;;;-7.00;99.90;;;;;;5007849;28;20244;-82
2024/01/09 02:00:21;;;;;;;8.80;3.00;;;-7.00;99.90;;;;;;5011261;28;20247;-84
2024/01/09 02:02:48;;;;;;;8.27;2.20;;;-7.00;99.90;;;;;;5023778;28;20291;-85
2024/01/09 02:05:16;;;;;;;10.18;2.80;;;-7.00;99.90;;;;;;5006069;28;20190;-83
2024/01/09 02:07:45;;;;;;;5.20;4.78;;;-7.00;99.90;;;;;;5029600;28;20210;-85
2024/01/09 02:10:11;;;;;;;1.20;0.93;;;-7.00;99.90;;;;;;5021084;28;20201;-84
2024/01/09 02:12:37;;;;;;;6.97;3.27;;;-7.10;99.90;;;;;;5014223;28;20586;-83
2024/01/09 02:15:04;;;;;;;10.48;3.25;;;-7.10;99.90;;;;;;5015148;28;20186;-84
2024/01/09 02:17:31;;;;;;;3.65;3.35;;;-7.00;99.90;;;;;;5008606;28;20320;-82
2024/01/09 02:19:59;;;;;;;4.72;2.10;;;-7.10;99.90;;;;;;5031973;28;20694;-82
2024/01/09 02:22:24;;;;;;;2.15;1.25;;;-7.00;99.90;;;;;;5009379;28;20531;-84
2024/01/09 02:24:50;;;;;;;0.93;0.93;;;-7.10;99.90;;;;;;5007752;28;20253;-84
2024/01/09 02:27:26;;;;;;;5.20;4.37;;;-7.10;99.90;;;;;;5007254;28;20214;-83
2024/01/09 02:29:52;;;;;;;4.45;3.60;;;-7.10;99.90;;;;;;5006048;28;21116;-82
2024/01/09 02:32:21;;;;;;;7.97;4.30;;;-7.10;99.90;;;;;;5001981;28;20255;-81
2024/01/09 02:34:48;;;;;;;2.22;1.55;;;-7.10;99.90;;;;;;5007792;28;20196;-87
2024/01/09 02:37:13;;;;;;;5.10;2.55;;;-7.10;99.90;;;;;;5009381;28;20213;-84
2024/01/09 02:39:39;;;;;;;2.23;2.13;;;-7.10;99.90;;;;;;5018414;28;20346;-83
2024/01/09 02:42:04;;;;;;;3.63;2.60;;;-7.10;99.90;;;;;;5016054;28;20248;-84
2024/01/09 02:44:30;;;;;;;17.70;3.30;;;-7.10;99.90;;;;;;5013426;28;20194;-81
2024/01/09 02:46:55;;;;;;;5.23;2.10;;;-7.00;99.90;;;;;;5010635;28;20197;-83
2024/01/09 02:49:21;;;;;;;3.90;3.60;;;-7.10;99.90;;;;;;5012211;28;20193;-81
2024/01/09 02:51:46;;;;;;;1.20;1.20;;;-7.10;99.90;;;;;;5006177;28;20209;-83
2024/01/09 02:54:12;;;;;;;3.60;2.37;;;-7.00;99.90;;;;;;5015142;28;20177;-84
2024/01/09 02:56:39;;;;;;;3.90;3.60;;;-7.10;99.90;;;;;;5014007;28;20317;-85
2024/01/09 02:59:05;;;;;;;0.60;0.60;;;-7.10;99.90;;;;;;5017889;28;20214;-83
2024/01/09 03:01:30;;;;;;;1.63;1.37;;;-7.10;99.90;;;;;;5014936;28;20197;-86
2024/01/09 03:03:56;;;;;;;5.13;2.33;;;-7.00;99.90;;;;;;5012610;28;20440;-82
2024/01/09 03:06:21;;;;;;;2.80;1.77;;;-7.10;99.90;;;;;;5010097;28;20566;-81
2024/01/09 03:08:50;;;;;;;2.93;2.00;;;-7.10;99.90;;;;;;5014275;28;20221;-86
2024/01/09 03:11:15;;;;;;;1.80;1.70;;;-7.10;99.90;;;;;;5030275;28;20178;-84
2024/01/09 03:13:41;;;;;;;2.80;1.50;;;-7.10;99.90;;;;;;5014947;28;20193;-83
2024/01/09 03:16:13;;;;;;;9.43;2.40;;;-7.10;99.90;;;;;;5015734;28;20436;-82
2024/01/09 03:18:40;;;;;;;3.22;2.97;;;-7.10;99.90;;;;;;5039158;28;20206;-85
2024/01/09 03:21:05;;;;;;;7.03;1.92;;;-7.20;99.90;;;;;;5026774;28;20193;-83
2024/01/09 03:23:34;;;;;;;5.20;2.33;;;-7.20;99.90;;;;;;5021801;28;20186;-85
2024/01/09 03:25:59;;;;;;;4.63;2.88;;;-7.20;99.90;;;;;;5029187;28;20182;-79
2024/01/09 03:28:26;;;;;;;1.30;1.20;;;-7.20;99.90;;;;;;5024986;28;20317;-81
2024/01/09 03:30:52;;;;;;;4.40;2.58;;;-7.20;99.90;;;;;;5017781;28;20198;-86
2024/01/09 03:33:17;;;;;;;2.63;2.40;;;-7.20;99.90;;;;;;5019021;28;20189;-85
2024/01/09 03:35:43;;;;;;;11.20;3.70;;;-7.20;99.90;;;;;;5018106;28;20556;-83
2024/01/09 03:38:08;;;;;;;2.77;2.40;;;-7.10;99.90;;;;;;5012802;28;20214;-85
2024/01/09 03:40:35;;;;;;;5.17;3.87;;;-7.10;99.90;;;;;;5016046;28;20191;-84
2024/01/09 03:43:02;;;;;;;2.22;2.03;;;-7.20;99.90;;;;;;5014343;28;20196;-80
2024/01/09 03:45:28;;;;;;;1.95;1.75;;;-7.20;99.90;;;;;;5016070;28;21463;-80
2024/01/09 03:47:54;;;;;;;3.63;2.05;;;-7.20;99.90;;;;;;5028552;28;20221;-82
2024/01/09 03:50:19;;;;;;;0.97;0.97;;;-7.20;99.90;;;;;;5013946;28;20208;-84
2024/01/09 03:52:45;;;;;;;1.77;1.67;;;-7.20;99.90;;;;;;5012507;28;20672;-85
2024/01/09 03:55:10;;;;;;;2.83;0.93;;;-7.20;99.90;;;;;;5003163;28;20193;-85
2024/01/09 03:57:36;;;;;;;7.23;4.27;;;-7.20;99.90;;;;;;5012454;28;20294;-83
2024/01/09 04:00:01;;;;;;;1.57;1.30;;;-7.20;99.90;;;;;;5013930;28;20193;-82
2024/01/09 04:02:27;;;;;;;2.87;2.67;;;-7.20;99.90;;;;;;5010153;28;20205;-82
2024/01/09 04:04:52;;;;;;;2.50;2.33;;;-7.30;99.90;;;;;;5008040;28;20310;-85
2024/01/09 04:07:18;;;;;;;5.90;2.23;;;-7.30;99.90;;;;;;5004628;28;20222;-81
2024/01/09 04:09:44;;;;;;;3.25;2.75;;;-7.30;99.90;;;;;;5008813;28;20222;-84
2024/01/09 04:12:09;;;;;;;3.87;1.60;;;-7.30;99.90;;;;;;5009053;28;20210;-81
2024/01/09 04:14:35;;;;;;;6.83;2.50;;;-7.30;99.90;;;;;;5016337;28;20175;-83
2024/01/09 04:17:00;;;;;;;2.50;1.90;;;-7.30;99.90;;;;;;5028817;28;20216;-82
2024/01/09 04:19:26;;;;;;;6.37;3.60;;;-7.30;99.90;;;;;;5036740;28;20241;-79
2024/01/09 04:21:51;;;;;;;2.60;1.87;;;-7.30;99.90;;;;;;5040043;28;20220;-79
2024/01/09 04:24:17;;;;;;;2.37;1.57;;;-7.30;99.90;;;;;;5017820;28;20197;-85
2024/01/09 04:26:42;;;;;;;1.80;1.33;;;-7.20;99.90;;;;;;5012802;28;20791;-80
2024/01/09 04:29:08;;;;;;;25.23;4.30;;;-7.20;99.90;;;;;;5008257;28;20767;-79
2024/01/09 04:31:33;;;;;;;2.80;2.70;;;-7.20;99.90;;;;;;5015727;28;20340;-78
2024/01/09 04:33:59;;;;;;;2.73;2.37;;;-7.30;99.90;;;;;;5017268;28;20198;-80
2024/01/09 04:36:24;;;;;;;1.13;1.13;;;-7.30;99.90;;;;;;5014659;28;20200;-82
2024/01/09 04:38:50;;;;;;;4.20;3.60;;;-7.30;99.90;;;;;;5013607;28;20303;-83
2024/01/09 04:41:19;;;;;;;29.57;5.27;;;-7.20;99.90;;;;;;5009438;28;20325;-87
2024/01/09 04:43:46;;;;;;;3.40;3.15;;;-7.20;99.90;;;;;;5006247;28;20194;-81
2024/01/09 04:46:12;;;;;;;6.85;4.00;;;-7.30;99.90;;;;;;5010019;28;20599;-82
2024/01/09 04:48:37;;;;;;;3.53;2.78;;;-7.30;99.90;;;;;;5010534;28;20361;-83
2024/01/09 04:51:03;;;;;;;20.77;11.97;;;-7.30;99.90;;;;;;5007521;28;20191;-82
2024/01/09 04:53:29;;;;;;;12.17;5.87;;;-7.20;99.90;;;;;;5011215;28;20182;-81
2024/01/09 04:55:54;;;;;;;7.10;4.40;;;-7.20;99.90;;;;;;5016307;28;20446;-86
2024/01/09 04:58:20;;;;;;;0.80;0.80;;;-7.20;99.90;;;;;;5017950;28;20233;-83
2024/01/09 05:00:47;;;;;;;6.07;2.87;;;-7.30;99.90;;;;;;5016257;28;20217;-83
2024/01/09 05:03:13;;;;;;;4.43;3.58;;;-7.20;99.90;;;;;;5011466;28;20196;-83
2024/01/09 05:05:38;;;;;;;5.73;3.77;;;-7.20;99.90;;;;;;5009574;28;20190;-82
2024/01/09 05:08:04;;;;;;;5.30;4.87;;;-7.20;99.90;;;;;;5022311;28;20498;-82
2024/01/09 05:10:31;;;;;;;8.75;2.22;;;-7.20;99.90;;;;;;5019271;28;20574;-83
2024/01/09 05:12:57;;;;;;;5.00;2.25;;;-7.20;99.90;;;;;;5010242;28;20185;-85
2024/01/09 05:15:22;;;;;;;5.03;2.83;;;-7.30;99.90;;;;;;5014628;28;20185;-81
2024/01/09 05:17:48;;;;;;;3.43;1.90;;;-7.30;99.90;;;;;;5005570;28;20471;-79
2024/01/09 05:20:13;;;;;;;0.97;0.60;;;-7.20;99.90;;;;;;5005022;28;20198;-78
2024/01/09 05:22:39;;;;;;;5.70;2.87;;;-7.20;99.90;;;;;;5009232;28;20934;-82
2024/01/09 05:25:06;;;;;;;2.00;1.90;;;-7.30;99.90;;;;;;5011493;28;20191;-83
2024/01/09 05:27:32;;;;;;;0.70;0.70;;;-7.30;99.90;;;;;;5032443;28;20252;-83
2024/01/09 05:29:58;;;;;;;3.83;2.00;;;-7.30;99.90;;;;;;5019726;28;20193;-84
2024/01/09 05:32:24;;;;;;;6.30;4.30;;;-7.30;99.90;;;;;;5017448;28;20218;-83
2024/01/09 05:34:50;;;;;;;3.13;2.50;;;-7.30;99.90;;;;;;5015963;28;20826;-84
2024/01/09 05:37:15;;;;;;;3.27;2.27;;;-7.30;99.90;;;;;;5014399;28;20178;-84
2024/01/09 05:39:46;;;;;;;3.70;1.40;;;-7.20;99.90;;;;;;5029690;28;20547;-82
2024/01/09 05:42:12;;;;;;;2.25;2.05;;;-7.20;99.90;;;;;;5033709;28;20201;-84
2024/01/09 05:44:38;;;;;;;3.27;3.07;;;-7.30;99.90;;;;;;5010076;28;20217;-82
2024/01/09 05:47:04;;;;;;;1.00;0.90;;;-7.20;99.90;;;;;;5012212;28;20441;-84
2024/01/09 05:49:29;;;;;;;2.45;2.35;;;-7.30;99.90;;;;;;5007127;28;20504;-81
2024/01/09 05:51:55;;;;;;;1.30;1.30;;;-7.20;99.90;;;;;;5007333;28;20592;-80
2024/01/09 05:54:21;;;;;;;13.50;4.80;;;-7.10;99.90;;;;;;5003927;28;20186;-84
2024/01/09 05:56:46;;;;;;;4.20;3.03;;;-7.30;99.90;;;;;;5006373;28;20214;-82
2024/01/09 05:59:12;;;;;;;7.73;5.93;;;-7.30;99.90;;;;;;5003724;28;20281;-83
2024/01/09 06:01:38;;;;;;;2.53;2.30;;;-7.30;99.90;;;;;;5011110;28;20238;-85
2024/01/09 06:04:04;;;;;;;7.60;4.10;;;-7.30;99.90;;;;;;5004084;28;20463;-82
2024/01/09 06:06:30;;;;;;;4.20;1.95;;;-7.30;99.90;;;;;;5009634;28;20287;-81
2024/01/09 06:08:55;;;;;;;3.73;3.53;;;-7.30;99.90;;;;;;5006840;28;20212;-82
2024/01/09 06:11:21;;;;;;;1.27;1.00;;;-7.30;99.90;;;;;;5005216;28;20646;-83
2024/01/09 06:13:47;;;;;;;4.18;3.58;;;-7.30;99.90;;;;;;5020527;28;20691;-81
2024/01/09 06:16:13;;;;;;;12.73;2.38;;;-7.30;99.90;;;;;;5013923;28;20189;-82
2024/01/09 06:18:39;;;;;;;1.67;1.00;;;-7.30;99.90;;;;;;5019031;28;20209;-79
2024/01/09 06:21:05;;;;;;;4.50;1.52;;;-7.40;99.90;;;;;;5011042;28;20186;-83
2024/01/09 06:23:30;;;;;;;1.80;1.67;;;-7.40;99.90;;;;;;5005968;28;20600;-82
2024/01/09 06:25:56;;;;;;;4.70;2.53;;;-7.30;99.90;;;;;;5001848;28;20197;-83
2024/01/09 06:28:22;;;;;;;3.27;2.97;;;-7.30;99.90;;;;;;5009420;28;20222;-83
2024/01/09 06:30:47;;;;;;;3.37;2.17;;;-7.30;99.90;;;;;;5014500;28;20855;-83
2024/01/09 06:33:13;;;;;;;2.60;2.30;;;-7.30;99.90;;;;;;5023331;28;20177;-80
2024/01/09 06:35:38;;;;;;;5.60;2.70;;;-6.80;99.90;;;;;;5006220;28;20190;-85
2024/01/09 06:38:04;;;;;;;11.27;5.97;;;-7.40;99.90;;;;;;5015963;28;20383;-82
2024/01/09 06:40:29;;;;;;;7.63;5.80;;;-7.40;99.90;;;;;;5008096;28;20194;-81
2024/01/09 06:42:55;;;;;;;6.60;4.13;;;-7.30;99.90;;;;;;5014499;28;20193;-80
2024/01/09 06:45:21;;;;;;;3.43;3.20;;;-7.30;99.90;;;;;;5027692;28;20428;-80
2024/01/09 06:47:46;;;;;;;13.30;4.67;;;-7.40;99.90;;;;;;5011551;28;20228;-80
2024/01/09 06:50:12;;;;;;;2.30;1.77;;;-7.40;99.90;;;;;;5018915;28;20208;-84
2024/01/09 06:52:38;;;;;;;3.53;1.73;;;-7.40;99.90;;;;;;5011442;28;20182;-84
2024/01/09 06:55:04;;;;;;;1.90;1.70;;;-7.40;99.90;;;;;;5007912;28;20686;-83
2024/01/09 06:57:30;;;;;;;3.33;3.05;;;-7.40;99.90;;;;;;5038197;28;20209;-83
2024/01/09 06:59:56;;;;;;;7.40;5.10;;;-7.40;99.90;;;;;;5011801;28;20209;-81
2024/01/09 07:02:21;;;;;;;10.73;5.27;;;-7.40;99.90;;;;;;5010753;28;20453;-80
2024/01/09 07:04:47;;;;;;;17.63;4.40;;;-7.30;99.90;;;;;;5025848;28;20447;-79
2024/01/09 07:07:13;;;;;;;3.63;2.97;;;-7.40;99.90;;;;;;5018738;28;20209;-83
2024/01/09 07:09:39;;;;;;;3.50;1.87;;;-7.30;99.90;;;;;;5014077;28;20221;-81
2024/01/09 07:12:05;;;;;;;3.13;1.58;;;-7.30;99.90;;;;;;5019107;28;23759;-83
2024/01/09 07:14:31;;;;;;;2.22;1.92;;;-7.30;99.90;;;;;;5007520;28;20190;-85
2024/01/09 07:16:57;;;;;;;2.03;1.83;;;-7.30;99.90;;;;;;5005876;28;20233;-84
2024/01/09 07:19:23;;;;;;;4.17;3.97;;;-7.40;99.90;;;;;;5003537;28;20313;-83
2024/01/09 07:21:49;;;;;;;1.80;1.70;;;-7.40;99.90;;;;;;5013885;28;20759;-81
2024/01/09 07:24:14;;;;;;;4.83;0.97;;;-7.30;99.90;;;;;;5010626;28;20193;-84
2024/01/09 07:26:41;;;;;;;1.53;1.07;;;-7.30;99.90;;;;;;5002240;28;20192;-82
2024/01/09 07:29:07;;;;;;;1.20;1.17;;;-7.20;99.90;;;;;;5007100;28;20721;-84
2024/01/09 07:31:32;;;;;;;0.57;0.53;;;-7.30;99.90;;;;;;5012717;28;20194;-83
2024/01/09 07:33:58;;;;;;;8.43;2.30;;;-7.20;99.90;;;;;;5008977;28;20190;-84
2024/01/09 07:36:23;;;;;;;10.40;4.60;;;-7.20;99.90;;;;;;5012773;28;20267;-84
2024/01/09 07:38:49;;;;;;;2.63;2.17;;;-7.20;99.90;;;;;;5033559;28;21794;-81
2024/01/09 07:41:17;;;;;;;5.90;2.13;;;-7.20;99.90;;;;;;5041140;28;20222;-81
2024/01/09 07:43:43;;;;;;;12.18;2.78;;;-7.20;99.90;;;;;;5024098;28;20183;-86
2024/01/09 07:46:10;;;;;;;9.93;4.65;;;-7.20;99.90;;;;;;5014729;28;20186;-81
2024/01/09 07:48:35;;;;;;;0.50;0.50;;;-7.10;99.90;;;;;;5004581;28;20217;-87
2024/01/09 07:51:01;;;;;;;2.23;2.10;;;-7.00;99.90;;;;;;5005708;28;20231;-81
2024/01/09 07:53:27;;;;;;;4.20;3.90;;;-7.00;99.90;;;;;;5010184;28;22008;-82
2024/01/09 07:55:53;;;;;;;12.70;3.42;;;-7.00;99.90;;;;;;5004528;28;20217;-82
2024/01/09 07:58:18;;;;;;;1.93;1.63;;;-6.90;99.90;;;;;;5007015;28;21330;-83
2024/01/09 08:00:44;;;;;;;2.47;2.37;;;-6.90;99.90;;;;;;5010681;28;20203;-83
2024/01/09 08:03:09;;;;;;;4.90;1.70;;;-6.70;99.90;;;;;;4998415;28;20267;-85
2024/01/09 08:05:35;;;;;;;2.03;1.27;;;-6.60;99.90;;;;;;5006080;28;20198;-85
2024/01/09 08:08:00;;;;;;;4.07;2.53;;;-6.60;99.90;;;;;;5006285;28;20220;-84
2024/01/09 08:10:26;;;;;;;1.53;1.43;;;-6.40;99.90;;;;;;5026102;28;20182;-85
2024/01/09 08:12:52;;;;;;;19.23;3.23;;;-6.00;99.90;;;;;;5011972;28;20200;-83
2024/01/09 08:15:17;;;;;;;5.17;4.80;;;-5.60;99.90;;;;;;5025355;28;20457;-81
2024/01/09 08:17:43;;;;;;;7.60;3.50;;;-5.20;99.90;;;;;;5009862;28;20207;-83
2024/01/09 08:20:09;;;;;;;4.13;2.50;;;-4.70;99.90;;;;;;5010077;28;20193;-83
2024/01/09 08:22:34;;;;;;;11.95;2.10;;;-4.00;99.90;;;;;;5007052;28;20177;-82
2024/01/09 08:25:00;;;;;;;4.70;4.27;;;-3.40;99.90;;;;;;5006325;28;20190;-83
2024/01/09 08:27:26;;;;;;;18.00;5.70;;;-2.90;99.90;;;;;;5011869;28;20213;-82
2024/01/09 08:29:51;;;;;;;6.73;3.47;;;-2.40;99.90;;;;;;5020526;28;20270;-81
2024/01/09 08:32:18;;;;;;;5.67;3.90;;;-2.20;99.90;;;;;;5019008;28;20198;-81
2024/01/09 08:34:43;;;;;;;13.07;6.85;;;-2.10;99.90;;;;;;5015983;28;20220;-81
2024/01/09 08:37:09;;;;;;;6.37;4.40;;;-1.80;99.90;;;;;;5011354;28;20664;-84
2024/01/09 08:39:35;;;;;;;3.57;3.20;;;-1.80;99.90;;;;;;5008935;28;20207;-84
2024/01/09 08:42:00;;;;;;;5.40;3.50;;;-2.00;99.90;;;;;;5013981;28;20828;-85
2024/01/09 08:44:27;;;;;;;6.80;5.00;;;-1.70;99.90;;;;;;5007506;28;20214;-83
2024/01/09 08:46:52;;;;;;;3.25;2.47;;;-1.60;99.90;;;;;;5004583;28;20311;-84
2024/01/09 08:49:19;;;;;;;9.50;3.13;;;-1.50;99.90;;;;;;5001288;28;20221;-83
2024/01/09 08:51:44;;;;;;;6.05;3.17;;;-1.30;99.90;;;;;;5010949;28;20498;-82
2024/01/09 08:54:10;;;;;;;16.03;3.40;;;-1.20;99.90;;;;;;5012859;28;20904;-80
2024/01/09 08:56:35;;;;;;;4.63;2.90;;;-1.30;99.90;;;;;;5011217;28;20202;-82
2024/01/09 08:59:01;;;;;;;10.80;3.10;;;-1.40;99.90;;;;;;5007607;28;20301;-81
2024/01/09 09:01:27;;;;;;;7.53;5.07;;;-1.50;99.90;;;;;;5011391;28;20241;-81
2024/01/09 09:03:52;;;;;;;10.00;3.70;;;-1.70;99.90;;;;;;4998983;28;21410;-85
2024/01/09 09:06:18;;;;;;;8.47;3.40;;;-1.80;99.90;;;;;;5002635;28;20194;-82
2024/01/09 09:08:46;;;;;;;11.40;2.97;;;-1.90;99.90;;;;;;5006240;28;20229;-80
2024/01/09 09:11:17;;;;;;;2.92;2.28;;;-2.00;99.90;;;;;;5014030;28;20193;-83
2024/01/09 09:13:43;;;;;;;8.50;3.50;;;-2.10;99.90;;;;;;5009293;28;20288;-81
2024/01/09 09:16:08;;;;;;;6.17;2.07;;;-1.90;99.90;;;;;;5030851;28;20500;-83
2024/01/09 09:18:34;;;;;;;7.90;2.83;;;-1.80;99.90;;;;;;5016113;28;20280;-82
2024/01/09 09:21:02;;;;;;;7.80;3.53;;;-2.10;99.90;;;;;;5015077;28;20489;-82
2024/01/09 09:23:28;;;;;;;4.88;2.85;;;-2.00;99.90;;;;;;5015101;28;20177;-83
2024/01/09 09:25:53;;;;;;;16.63;4.13;;;-2.00;99.90;;;;;;5009874;28;20197;-83
2024/01/09 09:28:19;;;;;;;7.83;4.60;;;-1.90;99.90;;;;;;5013249;28;20214;-85
2024/01/09 09:30:44;;;;;;;8.53;3.27;;;-1.40;99.90;;;;;;5007905;28;20189;-85
2024/01/09 09:33:10;;;;;;;11.70;5.57;;;-1.40;99.90;;;;;;5006224;28;20254;-82
2024/01/09 09:35:36;;;;;;;9.00;3.43;;;-1.30;99.90;;;;;;5016030;28;20303;-83
2024/01/09 09:38:02;;;;;;;5.57;3.30;;;-1.20;99.90;;;;;;5007051;28;20216;-79
2024/01/09 09:40:28;;;;;;;6.70;3.70;;;-1.40;99.90;;;;;;5012199;28;20200;-83
2024/01/09 09:42:58;;;;;;;7.07;4.20;;;-1.30;99.90;;;;;;5012691;28;20185;-85
2024/01/09 09:45:27;;;;;;;6.15;3.30;;;-1.50;99.90;;;;;;5004761;28;21861;-82
2024/01/09 09:47:56;;;;;;;11.90;3.08;;;-1.80;99.90;;;;;;5006699;28;20210;-83
2024/01/09 09:50:22;;;;;;;3.58;2.00;;;-2.60;99.90;;;;;;4998740;28;20277;-82
2024/01/09 09:52:49;;;;;;;3.40;3.15;;;-3.10;99.90;;;;;;4995816;28;20194;-80
2024/01/09 09:55:16;;;;;;;7.15;2.92;;;-3.10;99.90;;;;;;5001826;28;20931;-80
2024/01/09 09:57:41;;;;;;;4.20;2.55;;;-3.30;99.90;;;;;;5002338;28;20241;-80
2024/01/09 10:00:08;;;;;;;1.70;1.60;;;-3.60;99.90;;;;;;5005213;28;20186;-83
2024/01/09 10:02:38;;;;;;;3.05;2.50;;;-3.50;99.90;;;;;;5004541;28;20758;-83
2024/01/09 10:05:12;;;;;;;2.60;1.48;;;-3.50;99.90;;;;;;5015054;28;20192;-80
2024/01/09 10:07:39;;;;;;;4.13;2.00;;;-3.60;99.90;;;;;;5015469;28;20222;-84
2024/01/09 10:10:11;;;;;;;0.93;0.93;;;-3.50;99.90;;;;;;4994756;28;20581;-81
2024/01/09 10:12:36;;;;;;;3.05;1.95;;;-3.40;99.90;;;;;;5011080;28;20179;-82
2024/01/09 10:15:09;;;;;;;6.57;3.40;;;-3.40;99.90;;;;;;5007195;28;20870;-82
2024/01/09 10:17:44;;;;;;;5.63;2.13;;;-3.30;99.90;;;;;;5009488;28;20209;-81
2024/01/09 10:20:12;;;;;;;6.53;4.13;;;-3.30;99.90;;;;;;5005874;28;21170;-81
2024/01/09 10:22:38;;;;;;;6.22;3.92;;;-3.10;99.90;;;;;;5001763;28;20197;-83
2024/01/09 10:25:13;;;;;;;4.20;3.90;;;-3.00;99.90;;;;;;5012847;28;20673;-80
2024/01/09 10:27:40;;;;;;;11.40;4.88;;;-3.00;99.90;;;;;;5020098;28;20468;-81
2024/01/09 10:30:07;;;;;;;4.18;3.53;;;-3.00;99.90;;;;;;5010171;28;20562;-80
2024/01/09 10:32:34;;;;;;;11.15;7.22;;;-3.10;99.90;;;;;;5004925;28;20298;-81
2024/01/09 10:35:00;;;;;;;9.15;3.10;;;-2.90;99.90;;;;;;5005305;28;20189;-84
2024/01/09 10:37:26;;;;;;;8.35;4.13;;;-2.80;99.90;;;;;;5015933;28;20219;-84
2024/01/09 10:39:51;;;;;;;11.10;2.77;;;-2.90;99.90;;;;;;5002244;28;20198;-84
2024/01/09 10:42:17;;;;;;;3.50;3.20;;;-3.00;99.90;;;;;;5006581;28;20193;-81
2024/01/09 10:44:47;;;;;;;3.85;3.50;;;-2.90;99.90;;;;;;5003081;28;20837;-80
2024/01/09 10:47:14;;;;;;;8.10;3.88;;;-2.80;99.90;;;;;;5009850;28;20193;-81
2024/01/09 10:49:41;;;;;;;2.88;1.90;;;-2.80;99.90;;;;;;5008609;28;20185;-83
2024/01/09 10:52:13;;;;;;;6.80;3.63;;;-2.70;99.90;;;;;;5011056;28;20188;-83
2024/01/09 10:54:44;;;;;;;4.70;3.10;;;-2.50;99.90;;;;;;5004580;28;20190;-82
2024/01/09 10:57:12;;;;;;;7.65;1.85;;;-2.50;99.90;;;;;;5021473;28;20189;-80
2024/01/09 10:59:40;;;;;;;3.15;2.85;;;-2.30;99.90;;;;;;5032205;28;20181;-79
2024/01/09 11:02:15;;;;;;;3.38;3.08;;;-2.30;99.90;;;;;;5021466;28;20192;-79
2024/01/09 11:04:44;;;;;;;36.38;11.82;;;-2.20;99.90;;;;;;5009764;28;20291;-81
2024/01/09 11:07:16;;;;;;;9.88;3.72;;;-2.20;99.90;;;;;;5012785;28;20264;-81
2024/01/09 11:09:43;;;;;;;8.77;6.03;;;-2.30;99.90;;;;;;5011600;28;20185;-79
2024/01/09 11:12:23;;;;;;;14.25;7.78;;;-2.40;99.90;;;;;;5022114;28;20193;-84
2024/01/09 11:14:57;;;;;;;8.25;4.25;;;-2.30;99.90;;;;;;5013291;28;20297;-81
2024/01/09 11:17:25;;;;;;;15.50;6.82;;;-2.20;99.90;;;;;;5011320;28;20670;-82
2024/01/09 11:19:51;;;;;;;6.80;2.25;;;-1.90;99.90;;;;;;5007727;28;20198;-82
2024/01/09 11:22:18;;;;;;;5.10;3.40;;;-1.70;99.90;;;;;;5007573;28;20687;-82
2024/01/09 11:24:52;;;;;;;15.45;3.85;;;-1.90;99.90;;;;;;5011074;28;20296;-82
2024/01/09 11:27:17;;;;;;;5.05;2.03;;;-1.50;99.90;;;;;;5030898;28;20193;-81
2024/01/09 11:29:51;;;;;;;4.43;3.73;;;-1.50;99.90;;;;;;5019562;28;20186;-80
2024/01/09 11:32:18;;;;;;;7.95;3.30;;;-1.40;99.90;;;;;;5028557;28;20198;-81
2024/01/09 11:34:45;;;;;;;6.20;2.20;;;-1.30;99.90;;;;;;5017142;28;20190;-83
2024/01/09 11:37:18;;;;;;;10.20;4.00;;;-1.20;99.90;;;;;;5011200;28;20200;-80
2024/01/09 11:39:44;;;;;;;5.88;3.15;;;-1.10;99.90;;;;;;5010519;28;20186;-82
2024/01/09 11:42:11;;;;;;;13.93;5.03;;;-0.90;99.90;;;;;;5018012;28;20190;-82
2024/01/09 11:44:36;;;;;;;9.23;2.60;;;-0.70;99.90;;;;;;5013770;28;20221;-83
2024/01/09 11:47:02;;;;;;;5.30;2.07;;;-0.60;97.80;;;;;;5011060;28;20276;-85
2024/01/09 11:49:27;;;;;;;5.83;2.07;;;-0.50;97.30;;;;;;5006227;28;20201;-84
2024/01/09 11:51:55;;;;;;;3.33;2.03;;;-0.60;96.50;;;;;;5012670;28;20181;-83
2024/01/09 11:54:21;;;;;;;1.77;1.15;;;-0.50;97.10;;;;;;5004752;28;20260;-83
2024/01/09 11:56:49;;;;;;;21.43;3.63;;;-0.50;95.80;;;;;;5007928;28;20201;-84
2024/01/09 11:59:18;;;;;;;6.15;2.92;;;-0.30;95.50;;;;;;5011410;28;20460;-85
2024/01/09 12:01:47;;;;;;;6.43;3.58;;;-0.30;95.50;;;;;;5002466;28;20252;-81
2024/01/09 12:04:14;;;;;;;5.72;2.45;;;-0.40;96.50;;;;;;5002363;28;20192;-83
2024/01/09 12:06:39;;;;;;;8.57;3.25;;;-0.30;95.30;;;;;;5003594;28;20591;-84
2024/01/09 12:09:05;;;;;;;6.63;3.57;;;-0.40;95.00;;;;;;5007364;28;20744;-83
2024/01/09 12:11:31;;;;;;;5.03;2.57;;;-0.50;94.60;;;;;;5006287;28;21722;-81
2024/01/09 12:14:01;;;;;;;10.40;5.30;;;-0.60;94.20;;;;;;5009317;28;20190;-82
2024/01/09 12:16:29;;;;;;;5.38;2.28;;;-0.50;94.90;;;;;;5008452;28;20190;-83
2024/01/09 12:18:56;;;;;;;8.07;3.83;;;-0.40;94.70;;;;;;5005873;28;20976;-86
2024/01/09 12:21:27;;;;;;;11.63;3.17;;;-0.50;94.00;;;;;;5000240;28;20187;-83
2024/01/09 12:23:55;;;;;;;11.85;5.22;;;-0.60;93.90;;;;;;5002270;28;20185;-84
2024/01/09 12:26:22;;;;;;;5.97;2.83;;;-0.50;93.30;;;;;;5006035;28;20190;-83
2024/01/09 12:28:49;;;;;;;4.40;1.50;;;-0.50;93.50;;;;;;5008536;28;20896;-82
2024/01/09 12:31:17;;;;;;;6.05;2.58;;;-0.70;93.10;;;;;;5005739;28;20190;-81
2024/01/09 12:33:44;;;;;;;14.52;3.33;;;-0.60;93.30;;;;;;5003069;28;20237;-81
2024/01/09 12:36:09;;;;;;;10.65;3.05;;;-0.60;93.80;;;;;;5000056;28;20192;-83
2024/01/09 12:38:35;;;;;;;17.00;2.33;;;-0.50;93.30;;;;;;5022437;28;20230;-85
2024/01/09 12:41:02;;;;;;;4.07;3.13;;;-0.50;93.20;;;;;;5008268;28;20276;-83